ESOK/KSD METAR and TAF weather

Enter ICAO airport designator
Station Type Date Time Source
ESOK METAR 2021/09/20 04:20 UTC NOAA

ESOK 200420Z AUTO 02006KT 9999 OVC045/// 07/04 Q1027


Station Type Date Time Source
ESOK Decoded METAR 2021/09/20 04:20 UTC NOAA

Karlstad , Sweden (ESOK) 59-26-41N 013-20-15E
Sep 20, 2021 - 12:20 AM EDT / 2021.09.20 0420 UTC
Wind: from the NNE (020 degrees) at 7 MPH (6 KT):0
Visibility: greater than 7 mile(s):0
Sky conditions: overcast
Temperature: 44 F (7 C)
Dew Point: 39 F (4 C)
Relative Humidity: 81%
Pressure (altimeter): 30.33 in. Hg (1027 hPa)
ob: ESOK 200420Z AUTO 02006KT 9999 OVC045/// 07/04 Q1027
cycle: 4

Station Type Date Time Source
ESOK TAF 2017/05/22 06:33 UTC NOAA

TAF ESOK 220530Z 2206/2224 28006KT CAVOK

Example: see airport list